createdAt,value
2022-08-05T04:00:32.212Z,100443.00
2022-08-05T04:03:04.326Z,100442.00
2022-08-05T04:05:36.314Z,100446.00
2022-08-05T04:08:29.713Z,100450.00
2022-08-05T04:11:02.562Z,100442.00
2022-08-05T04:13:49.756Z,100445.00
2022-08-05T04:16:25.223Z,100450.00
2022-08-05T04:18:54.851Z,100458.00
2022-08-05T04:22:09.469Z,100451.00
2022-08-05T04:24:19.119Z,100435.00
2022-08-05T04:26:50.813Z,100402.00
2022-08-05T04:29:19.678Z,100433.00
2022-08-05T04:31:49.737Z,100431.00
2022-08-05T04:34:33.594Z,100429.00
2022-08-05T04:37:03.584Z,100431.00
2022-08-05T04:39:32.339Z,100428.00
2022-08-05T04:42:03.886Z,100431.00
2022-08-05T04:44:32.008Z,100434.00
2022-08-05T04:47:09.374Z,100449.00
2022-08-05T04:50:02.866Z,100449.00
2022-08-05T04:52:28.117Z,100477.00
2022-08-05T04:54:57.289Z,100483.00
2022-08-05T04:57:28.526Z,100485.00
2022-08-05T04:59:58.513Z,100481.00
2022-08-05T05:02:37.701Z,100486.00
2022-08-05T05:05:26.150Z,100470.00
2022-08-05T05:08:02.348Z,100478.00
2022-08-05T05:10:33.259Z,100475.00
2022-08-05T05:13:03.651Z,100463.00
2022-08-05T05:15:59.290Z,100471.00
2022-08-05T05:18:31.441Z,100480.00
2022-08-05T05:21:03.590Z,100474.00
2022-08-05T05:24:03.028Z,100478.00
2022-08-05T05:26:28.433Z,100477.00
2022-08-05T05:29:02.411Z,100476.00
2022-08-05T05:34:01.990Z,100479.00
2022-08-05T05:36:31.753Z,100488.00
2022-08-05T05:39:00.183Z,100505.00
2022-08-05T05:41:40.459Z,100513.00
2022-08-05T05:44:35.513Z,100527.00
2022-08-05T05:47:04.050Z,100537.00
2022-08-05T05:49:34.276Z,100540.00
2022-08-05T05:52:05.883Z,100541.00
2022-08-05T05:54:49.960Z,100537.00
2022-08-05T05:57:20.179Z,100525.00
2022-08-05T05:59:49.147Z,100520.00
2022-08-05T06:02:32.738Z,100532.00
2022-08-05T06:05:10.600Z,100538.00
2022-08-05T06:07:57.976Z,100556.00
2022-08-05T06:10:36.488Z,100593.00
2022-08-05T06:13:06.056Z,100602.00
2022-08-05T06:16:28.431Z,100591.00
2022-08-05T06:18:31.021Z,100575.00
2022-08-05T06:21:01.384Z,100586.00
2022-08-05T06:23:32.261Z,100605.00
2022-08-05T06:26:21.705Z,100610.00
2022-08-05T06:28:53.004Z,100616.00
2022-08-05T06:31:21.989Z,100622.00
2022-08-05T06:34:07.405Z,100639.00
2022-08-05T06:36:56.910Z,100628.00
2022-08-05T06:39:27.878Z,100626.00
2022-08-05T06:41:58.969Z,100607.00
2022-08-05T06:44:27.430Z,100618.00
2022-08-05T06:46:55.966Z,100610.00
2022-08-05T06:49:59.808Z,100603.00
2022-08-05T06:52:36.794Z,100600.00
2022-08-05T06:55:02.783Z,100602.00
2022-08-05T06:57:58.221Z,100598.00
2022-08-05T07:00:24.812Z,100599.00
2022-08-05T07:02:54.119Z,100607.00
2022-08-05T07:05:36.863Z,100612.00
2022-08-05T07:08:10.632Z,100599.00
2022-08-05T07:10:52.856Z,100603.00
2022-08-05T07:13:58.081Z,100606.00
2022-08-05T07:18:01.163Z,100612.00
2022-08-05T07:20:23.070Z,100615.00
2022-08-05T07:22:29.102Z,100626.00
2022-08-05T07:25:23.118Z,100630.00
2022-08-05T07:27:58.023Z,100642.00
2022-08-05T07:30:33.428Z,100650.00
2022-08-05T07:33:05.309Z,100661.00
2022-08-05T07:36:02.249Z,100647.00
2022-08-05T07:38:33.334Z,100645.00
2022-08-05T07:42:07.027Z,100632.00
2022-08-05T07:43:56.446Z,100646.00
2022-08-05T07:46:26.766Z,100648.00
2022-08-05T07:49:02.502Z,100653.00
2022-08-05T07:51:36.982Z,100643.00
2022-08-05T07:54:09.725Z,100641.00
2022-08-05T07:57:01.878Z,100637.00
2022-08-05T07:59:38.271Z,100646.00
2022-08-05T08:02:10.702Z,100624.00
2022-08-05T08:04:45.131Z,100620.00
2022-08-05T08:07:16.321Z,100633.00
2022-08-05T08:09:46.686Z,100646.00
2022-08-05T08:12:35.639Z,100647.00
2022-08-05T08:15:09.688Z,100623.00
2022-08-05T08:17:46.276Z,100634.00
2022-08-05T08:21:00.236Z,100629.00
2022-08-05T08:24:03.163Z,100622.00
2022-08-05T08:26:02.892Z,100620.00
2022-08-05T08:28:42.384Z,100628.00
2022-08-05T08:31:22.552Z,100614.00
2022-08-05T08:33:51.618Z,100618.00
2022-08-05T08:36:38.278Z,100633.00
2022-08-05T08:39:15.784Z,100632.00
2022-08-05T08:41:51.783Z,100649.00
2022-08-05T08:45:21.421Z,100655.00
2022-08-05T08:48:05.528Z,100660.00
2022-08-05T08:50:31.736Z,100678.00
2022-08-05T08:53:08.136Z,100675.00
2022-08-05T08:56:03.041Z,100672.00
2022-08-05T08:58:43.034Z,100676.00
2022-08-05T09:01:16.455Z,100681.00
2022-08-05T09:03:47.722Z,100677.00
2022-08-05T09:06:21.213Z,100662.00
2022-08-05T09:08:52.287Z,100653.00
2022-08-05T09:11:52.669Z,100648.00
2022-08-05T09:14:57.460Z,100653.00
2022-08-05T09:16:59.366Z,100689.00
2022-08-05T09:19:36.631Z,100707.00
2022-08-05T09:22:30.717Z,100727.00
2022-08-05T09:25:00.907Z,100708.00
2022-08-05T09:28:04.669Z,100707.00
2022-08-05T09:30:23.886Z,100709.00
2022-08-05T09:32:53.804Z,100717.00
2022-08-05T09:35:27.022Z,100720.00
2022-08-05T09:38:12.222Z,100729.00
2022-08-05T09:40:53.638Z,100737.00
2022-08-05T09:43:40.761Z,100753.00
2022-08-05T09:46:27.673Z,100746.00
2022-08-05T09:49:08.015Z,100735.00
2022-08-05T09:51:48.773Z,100733.00
2022-08-05T09:54:28.995Z,100722.00
2022-08-05T09:57:01.488Z,100717.00
2022-08-05T09:59:35.187Z,100719.00
2022-08-05T10:02:06.337Z,100709.00
2022-08-05T10:04:41.106Z,100681.00
2022-08-05T10:07:19.736Z,100685.00
2022-08-05T10:10:04.082Z,100698.00
2022-08-05T10:12:50.014Z,100678.00
2022-08-05T10:15:52.952Z,100669.00
2022-08-05T10:18:23.719Z,100662.00
2022-08-05T10:20:56.584Z,100664.00
2022-08-05T10:23:55.764Z,100653.00
2022-08-05T10:26:15.785Z,100660.00
2022-08-05T10:28:47.334Z,100678.00
2022-08-05T10:32:53.682Z,100706.00
2022-08-05T10:34:08.112Z,100688.00
2022-08-05T10:36:41.239Z,100710.00
2022-08-05T10:39:24.208Z,100742.00
2022-08-05T10:42:18.664Z,100742.00
2022-08-05T10:45:01.693Z,100714.00
2022-08-05T10:47:36.757Z,100710.00
2022-08-05T10:50:33.081Z,100708.00
2022-08-05T10:53:02.389Z,100710.00
2022-08-05T10:55:38.473Z,100713.00
2022-08-05T10:58:21.234Z,100733.00
2022-08-05T11:00:55.396Z,100726.00
2022-08-05T11:03:31.283Z,100724.00
2022-08-05T11:06:15.266Z,100717.00
2022-08-05T11:09:32.230Z,100675.00
2022-08-05T11:12:50.548Z,100679.00
2022-08-05T11:15:59.294Z,100675.00
2022-08-05T11:18:29.976Z,100669.00
2022-08-05T11:21:02.024Z,100695.00
2022-08-05T11:24:03.948Z,100703.00
2022-08-05T11:26:28.466Z,100721.00
2022-08-05T11:29:11.384Z,100715.00
2022-08-05T11:31:57.639Z,100729.00
2022-08-05T11:34:51.932Z,100744.00
2022-08-05T11:38:29.105Z,100749.00
2022-08-05T11:41:35.041Z,100739.00
2022-08-05T11:44:05.805Z,100745.00
2022-08-05T11:47:10.109Z,100745.00
2022-08-05T11:49:29.095Z,100754.00
2022-08-05T11:52:11.060Z,100757.00
2022-08-05T11:54:41.302Z,100746.00
2022-08-05T11:57:25.230Z,100744.00
2022-08-05T11:59:56.720Z,100743.00
2022-08-05T12:02:33.055Z,100746.00
2022-08-05T12:05:06.839Z,100755.00
2022-08-05T12:08:07.567Z,100753.00
2022-08-05T12:10:42.926Z,100751.00
2022-08-05T12:13:18.532Z,100754.00
2022-08-05T12:15:58.481Z,100750.00
2022-08-05T12:18:34.227Z,100755.00
2022-08-05T12:21:17.357Z,100757.00
2022-08-05T12:23:55.456Z,100770.00
2022-08-05T12:26:23.952Z,100772.00
2022-08-05T12:28:52.316Z,100777.00
2022-08-05T12:31:23.377Z,100768.00
2022-08-05T12:34:03.141Z,100769.00
2022-08-05T12:36:32.590Z,100756.00
2022-08-05T12:39:01.155Z,100755.00
2022-08-05T12:41:34.296Z,100759.00
2022-08-05T12:44:06.772Z,100762.00
2022-08-05T12:46:45.649Z,100764.00
2022-08-05T12:49:16.119Z,100766.00
2022-08-05T12:52:14.159Z,100778.00
2022-08-05T12:54:38.468Z,100771.00
2022-08-05T12:57:09.732Z,100773.00
2022-08-05T13:01:58.134Z,100781.00
2022-08-05T13:02:40.170Z,100781.00
2022-08-05T13:05:12.580Z,100782.00
2022-08-05T13:08:01.101Z,100775.00
2022-08-05T13:10:33.910Z,100775.00
2022-08-05T13:13:07.164Z,100770.00
2022-08-05T13:15:49.240Z,100763.00
2022-08-05T13:18:20.778Z,100772.00
2022-08-05T13:20:50.330Z,100772.00
2022-08-05T13:23:22.495Z,100774.00
2022-08-05T13:25:59.171Z,100773.00
2022-08-05T13:28:28.177Z,100775.00
2022-08-05T13:30:57.129Z,100772.00
2022-08-05T13:34:23.188Z,100766.00
2022-08-05T13:36:14.996Z,100763.00
2022-08-05T13:38:43.383Z,100761.00
2022-08-05T13:41:11.949Z,100746.00
2022-08-05T13:48:08.814Z,100755.00
2022-08-05T13:50:36.599Z,100763.00
2022-08-05T13:53:04.663Z,100756.00
2022-08-05T13:55:40.706Z,100753.00
2022-08-05T13:58:11.023Z,100760.00
2022-08-05T14:00:39.205Z,100755.00
2022-08-05T14:03:09.755Z,100766.00
2022-08-05T14:06:24.780Z,100756.00
2022-08-05T14:08:27.680Z,100757.00
2022-08-05T14:11:08.142Z,100745.00
2022-08-05T14:13:48.479Z,100753.00
2022-08-05T14:16:19.109Z,100754.00
2022-08-05T14:18:47.602Z,100751.00
2022-08-05T14:22:08.852Z,100762.00
2022-08-05T14:24:08.905Z,100754.00
2022-08-05T14:26:51.349Z,100753.00
2022-08-05T14:29:25.361Z,100752.00
2022-08-05T14:31:54.460Z,100755.00
2022-08-05T14:34:41.427Z,100761.00
2022-08-05T14:37:13.339Z,100754.00
2022-08-05T14:39:49.737Z,100759.00
2022-08-05T14:42:20.780Z,100765.00
2022-08-05T14:44:50.381Z,100760.00
2022-08-05T14:47:58.520Z,100766.00
2022-08-05T14:50:15.657Z,100750.00
2022-08-05T14:52:57.728Z,100764.00
2022-08-05T14:55:38.421Z,100766.00
2022-08-05T14:58:11.390Z,100763.00
2022-08-05T15:00:58.561Z,100765.00
2022-08-05T15:03:33.395Z,100773.00
2022-08-05T15:06:13.067Z,100766.00
2022-08-05T15:09:01.562Z,100752.00
2022-08-05T15:11:52.407Z,100750.00
2022-08-05T15:14:34.704Z,100747.00
2022-08-05T15:17:46.920Z,100760.00
2022-08-05T15:19:58.392Z,100763.00
2022-08-05T15:22:28.229Z,100750.00
2022-08-05T15:24:59.431Z,100761.00
2022-08-05T15:27:32.263Z,100757.00
2022-08-05T15:30:06.541Z,100751.00
2022-08-05T15:32:34.672Z,100750.00
2022-08-05T15:35:12.324Z,100758.00
2022-08-05T15:38:34.306Z,100758.00
2022-08-05T15:41:00.431Z,100770.00
2022-08-05T15:43:20.293Z,100765.00
2022-08-05T15:46:00.694Z,100776.00
2022-08-05T15:48:30.548Z,100775.00
2022-08-05T15:51:03.549Z,100782.00
2022-08-05T15:53:38.243Z,100787.00
2022-08-05T15:56:20.570Z,100794.00
2022-08-05T15:58:49.806Z,100797.00
2022-08-05T16:01:20.013Z,100802.00
2022-08-05T16:03:50.620Z,100790.00
2022-08-05T16:10:23.156Z,100789.00
2022-08-05T16:12:56.205Z,100798.00
2022-08-05T16:15:24.789Z,100809.00
2022-08-05T16:18:00.899Z,100807.00
2022-08-05T16:20:32.622Z,100805.00
2022-08-05T16:23:00.963Z,100807.00
2022-08-05T16:25:34.085Z,100799.00
2022-08-05T16:28:05.463Z,100814.00
2022-08-05T16:30:36.116Z,100822.00
2022-08-05T16:33:05.367Z,100826.00
2022-08-05T16:35:41.978Z,100844.00
2022-08-05T16:38:18.834Z,100854.00
2022-08-05T16:40:59.859Z,100851.00
2022-08-05T16:43:33.282Z,100857.00
2022-08-05T16:46:23.461Z,100876.00
2022-08-05T16:48:52.714Z,100887.00
2022-08-05T16:51:21.037Z,100881.00
2022-08-05T16:54:05.421Z,100859.00
2022-08-05T16:56:41.606Z,100856.00
2022-08-05T16:59:11.873Z,100871.00
2022-08-05T17:01:54.084Z,100869.00
2022-08-05T17:04:26.583Z,100869.00
2022-08-05T17:06:56.990Z,100877.00
2022-08-05T17:09:29.823Z,100879.00
2022-08-05T17:11:59.852Z,100887.00
2022-08-05T17:14:37.447Z,100904.00
2022-08-05T17:17:14.386Z,100912.00
2022-08-05T17:19:46.062Z,100908.00
2022-08-05T17:22:24.381Z,100922.00
2022-08-05T17:24:58.136Z,100934.00
2022-08-05T17:27:34.315Z,100939.00
2022-08-05T17:30:12.100Z,100949.00
2022-08-05T17:32:47.355Z,100954.00
2022-08-05T17:35:20.983Z,100931.00
2022-08-05T17:37:49.473Z,100956.00
2022-08-05T17:40:22.532Z,100963.00
2022-08-05T17:42:52.902Z,100966.00
2022-08-05T17:45:38.292Z,100960.00
2022-08-05T17:48:08.700Z,100966.00
2022-08-05T17:50:37.185Z,100962.00
2022-08-05T17:53:08.488Z,100988.00
2022-08-05T17:55:37.886Z,100973.00
2022-08-05T17:58:12.461Z,100992.00
2022-08-05T18:00:47.580Z,100990.00
2022-08-05T18:03:56.417Z,101001.00
2022-08-05T18:06:12.171Z,101015.00
2022-08-05T18:08:45.750Z,101031.00
2022-08-05T18:11:23.831Z,101025.00
2022-08-05T18:13:54.689Z,101030.00
2022-08-05T18:16:24.774Z,101038.00
2022-08-05T18:18:52.866Z,101022.00
2022-08-05T18:21:22.879Z,101024.00
2022-08-05T18:23:54.727Z,101037.00
2022-08-05T18:26:27.449Z,101016.00
2022-08-05T18:28:56.410Z,101044.00
2022-08-05T18:31:35.321Z,101040.00
2022-08-05T18:34:05.929Z,101055.00
2022-08-05T18:36:36.275Z,101047.00
2022-08-05T18:39:09.683Z,101059.00
2022-08-05T18:41:51.291Z,101064.00
2022-08-05T18:44:34.961Z,101067.00
2022-08-05T18:47:16.969Z,101069.00
2022-08-05T18:50:02.433Z,101073.00
2022-08-05T18:52:35.584Z,101081.00
2022-08-05T18:55:10.548Z,101081.00
2022-08-05T18:57:50.340Z,101081.00
2022-08-05T19:00:28.746Z,101091.00
2022-08-05T19:03:03.599Z,101086.00
2022-08-05T19:06:12.566Z,101086.00
2022-08-05T19:08:30.542Z,101101.00
2022-08-05T19:11:04.754Z,101101.00
2022-08-05T19:13:36.726Z,101103.00
2022-08-05T19:16:24.360Z,101086.00
2022-08-05T19:18:57.719Z,101074.00
2022-08-05T19:21:34.377Z,101090.00
2022-08-05T19:24:08.908Z,101121.00
2022-08-05T19:26:43.842Z,101111.00
2022-08-05T19:29:26.528Z,101149.00
2022-08-05T19:32:04.409Z,101143.00
2022-08-05T19:34:34.384Z,101135.00
2022-08-05T19:37:02.705Z,101147.00
2022-08-05T19:39:32.031Z,101147.00
2022-08-05T19:42:15.358Z,101146.00
2022-08-05T19:44:45.107Z,101156.00
2022-08-05T19:47:16.424Z,101164.00
2022-08-05T19:49:48.109Z,101168.00
2022-08-05T19:52:40.357Z,101168.00
2022-08-05T19:55:06.952Z,101174.00
2022-08-05T19:58:07.044Z,101181.00
2022-08-05T20:00:42.693Z,101176.00
2022-08-05T20:03:11.128Z,101180.00
2022-08-05T20:05:43.152Z,101151.00
2022-08-05T20:08:11.876Z,101164.00
2022-08-05T20:10:40.026Z,101165.00
2022-08-05T20:13:12.120Z,101169.00
2022-08-05T20:15:52.187Z,101164.00
2022-08-05T20:18:33.156Z,101157.00
2022-08-05T20:21:06.664Z,101178.00
2022-08-05T20:23:40.551Z,101182.00
2022-08-05T20:26:20.774Z,101183.00
2022-08-05T20:28:51.496Z,101192.00
2022-08-05T20:31:28.769Z,101196.00
2022-08-05T20:34:10.529Z,101201.00
2022-08-05T20:36:43.562Z,101209.00
2022-08-05T20:39:13.227Z,101224.00
2022-08-05T20:41:43.870Z,101234.00
2022-08-05T20:44:18.616Z,101235.00
2022-08-05T20:46:58.080Z,101236.00
2022-08-05T20:49:26.429Z,101239.00
2022-08-05T20:51:57.924Z,101253.00
2022-08-05T20:54:42.643Z,101251.00
2022-08-05T20:57:14.383Z,101264.00
2022-08-05T21:00:10.351Z,101270.00
